createdAt,value
2023-03-10T00:00:21.622Z,23.20
2023-03-10T00:02:50.106Z,23.70
2023-03-10T00:05:18.550Z,21.83
2023-03-10T00:07:45.662Z,22.80
2023-03-10T00:10:14.238Z,25.50
2023-03-10T00:12:40.744Z,20.20
2023-03-10T00:15:08.443Z,24.52
2023-03-10T00:17:35.106Z,23.08
2023-03-10T00:20:01.651Z,21.48
2023-03-10T00:22:28.153Z,25.38
2023-03-10T00:24:54.654Z,23.30
2023-03-10T00:27:21.157Z,25.35
2023-03-10T00:29:51.451Z,26.58
2023-03-10T00:32:18.570Z,23.20
2023-03-10T00:34:45.204Z,24.20
2023-03-10T00:37:11.755Z,25.92
2023-03-10T00:39:38.320Z,27.02
2023-03-10T00:42:05.147Z,25.15
2023-03-10T00:44:31.653Z,26.15
2023-03-10T00:46:58.275Z,24.58
2023-03-10T00:49:24.844Z,24.85
2023-03-10T00:51:51.332Z,27.10
2023-03-10T00:54:17.825Z,23.88
2023-03-10T00:56:44.270Z,27.35
2023-03-10T00:59:12.303Z,25.40
2023-03-10T01:01:40.950Z,22.70
2023-03-10T01:06:35.640Z,20.55
2023-03-10T01:09:03.273Z,21.85
2023-03-10T01:11:30.219Z,19.60
2023-03-10T01:13:58.744Z,22.10
2023-03-10T01:16:25.897Z,20.85
2023-03-10T01:18:52.627Z,23.85
2023-03-10T01:21:24.693Z,22.67
2023-03-10T01:23:51.720Z,21.65
2023-03-10T01:26:19.099Z,23.48
2023-03-10T01:28:46.402Z,22.63
2023-03-10T01:31:13.212Z,22.65
2023-03-10T01:33:41.101Z,22.27
2023-03-10T01:36:12.774Z,23.05
2023-03-10T01:38:39.741Z,22.35
2023-03-10T01:41:06.621Z,20.92
2023-03-10T01:43:37.579Z,22.95
2023-03-10T01:46:04.112Z,22.77
2023-03-10T01:48:34.388Z,24.73
2023-03-10T01:51:01.337Z,28.15
2023-03-10T01:53:28.572Z,22.83
2023-03-10T01:55:59.791Z,25.92
2023-03-10T01:58:29.815Z,23.05
2023-03-10T02:00:56.456Z,22.58
2023-03-10T02:03:25.249Z,21.80
2023-03-10T02:05:53.361Z,22.00
2023-03-10T02:08:20.149Z,23.98
2023-03-10T02:10:46.885Z,23.60
2023-03-10T02:13:13.369Z,24.13
2023-03-10T02:15:40.774Z,22.08
2023-03-10T02:18:09.897Z,25.02
2023-03-10T02:20:57.209Z,22.50
2023-03-10T02:23:31.917Z,25.02
2023-03-10T02:26:10.061Z,30.38
2023-03-10T02:28:36.581Z,26.85
2023-03-10T02:31:03.340Z,23.35
2023-03-10T02:33:31.673Z,24.08
2023-03-10T02:36:14.467Z,23.35
2023-03-10T02:38:41.021Z,24.83
2023-03-10T02:41:17.337Z,22.20
2023-03-10T02:43:43.859Z,24.00
2023-03-10T02:46:10.524Z,23.52
2023-03-10T02:48:38.956Z,27.50
2023-03-10T02:51:09.911Z,24.08
2023-03-10T02:53:36.797Z,26.73
2023-03-10T02:56:03.403Z,26.63
2023-03-10T02:58:31.525Z,26.55
2023-03-10T03:03:25.250Z,26.23
2023-03-10T03:05:52.060Z,25.35
2023-03-10T03:08:19.153Z,26.23
2023-03-10T03:10:46.168Z,32.60
2023-03-10T03:13:12.941Z,31.35
2023-03-10T03:15:39.543Z,30.15
2023-03-10T03:18:06.329Z,32.00
2023-03-10T03:20:33.231Z,33.58
2023-03-10T03:22:59.941Z,28.23
2023-03-10T03:25:28.298Z,31.85
2023-03-10T03:27:55.258Z,35.10
2023-03-10T03:30:25.443Z,29.50
2023-03-10T03:32:53.201Z,35.47
2023-03-10T03:35:24.686Z,32.15
2023-03-10T03:37:52.422Z,31.73
2023-03-10T03:40:19.323Z,34.35
2023-03-10T03:42:50.952Z,32.47
2023-03-10T03:45:20.576Z,35.25
2023-03-10T03:47:47.364Z,35.53
2023-03-10T03:50:16.035Z,30.50
2023-03-10T03:55:10.523Z,35.05
2023-03-10T03:57:37.522Z,30.55
2023-03-10T04:00:09.849Z,30.45
2023-03-10T04:02:36.479Z,31.65
2023-03-10T04:05:03.376Z,33.35
2023-03-10T04:07:29.929Z,35.42
2023-03-10T04:09:56.521Z,33.13
2023-03-10T04:12:23.231Z,34.08
2023-03-10T04:14:49.898Z,34.20
2023-03-10T04:17:16.828Z,40.33
2023-03-10T04:19:45.886Z,34.15
2023-03-10T04:22:14.118Z,31.10
2023-03-10T04:24:40.636Z,34.17
2023-03-10T04:27:09.559Z,33.10
2023-03-10T04:29:36.939Z,38.17
2023-03-10T04:32:05.824Z,31.25
2023-03-10T04:34:33.092Z,34.45
2023-03-10T04:37:00.087Z,37.45
2023-03-10T04:39:26.625Z,39.03
2023-03-10T04:41:53.128Z,34.60
2023-03-10T04:44:30.435Z,36.80
2023-03-10T04:46:58.253Z,36.47
2023-03-10T04:49:24.912Z,38.55
2023-03-10T04:51:51.409Z,44.35
2023-03-10T04:54:18.122Z,39.33
2023-03-10T04:56:44.764Z,40.50
2023-03-10T04:59:11.341Z,38.85
2023-03-10T05:01:37.931Z,37.22
2023-03-10T05:04:05.309Z,37.42
2023-03-10T05:06:31.872Z,38.28
2023-03-10T05:08:58.478Z,35.60
2023-03-10T05:11:25.026Z,33.75
2023-03-10T05:13:51.648Z,34.35
2023-03-10T05:16:20.770Z,34.78
2023-03-10T05:18:47.598Z,35.95
2023-03-10T05:21:14.562Z,34.83
2023-03-10T05:23:41.242Z,37.40
2023-03-10T05:26:09.103Z,33.55
2023-03-10T05:28:36.140Z,28.85
2023-03-10T05:31:09.222Z,32.28
2023-03-10T05:33:35.803Z,27.45
2023-03-10T05:36:07.450Z,27.67
2023-03-10T05:38:34.144Z,30.42
2023-03-10T05:41:01.168Z,29.08
2023-03-10T05:43:28.057Z,25.13
2023-03-10T05:45:56.400Z,24.50
2023-03-10T05:48:23.325Z,23.70
2023-03-10T05:51:00.647Z,23.75
2023-03-10T05:53:27.919Z,22.70
2023-03-10T05:55:55.398Z,23.13
2023-03-10T05:58:22.959Z,23.35
2023-03-10T06:00:49.683Z,23.38
2023-03-10T06:03:16.779Z,23.42
2023-03-10T06:05:43.417Z,22.17
2023-03-10T06:08:09.992Z,23.58
2023-03-10T06:10:36.567Z,20.70
2023-03-10T06:13:03.143Z,20.92
2023-03-10T06:15:30.342Z,20.27
2023-03-10T06:17:56.916Z,20.95
2023-03-10T06:20:23.446Z,22.35
2023-03-10T06:22:51.964Z,19.13
2023-03-10T06:25:18.823Z,19.90
2023-03-10T06:27:45.354Z,19.08
2023-03-10T06:30:12.144Z,18.55
2023-03-10T06:32:38.783Z,21.23
2023-03-10T06:35:05.996Z,22.30
2023-03-10T06:37:32.569Z,19.63
2023-03-10T06:39:59.038Z,18.45
2023-03-10T06:42:25.634Z,24.48
2023-03-10T06:44:55.542Z,20.40
2023-03-10T06:47:22.057Z,19.55
2023-03-10T06:49:48.585Z,18.40
2023-03-10T06:52:15.208Z,17.63
2023-03-10T06:54:41.772Z,19.15
2023-03-10T06:57:08.442Z,16.58
2023-03-10T06:59:35.221Z,17.50
2023-03-10T07:02:01.858Z,16.58
2023-03-10T07:04:28.454Z,17.35
2023-03-10T07:06:55.029Z,17.50
2023-03-10T07:09:21.569Z,17.42
2023-03-10T07:11:48.347Z,15.68
2023-03-10T07:14:14.871Z,17.65
2023-03-10T07:16:41.462Z,16.30
2023-03-10T07:19:07.989Z,19.63
2023-03-10T07:21:34.553Z,19.58
2023-03-10T07:24:01.115Z,17.50
2023-03-10T07:26:27.752Z,22.23
2023-03-10T07:28:54.389Z,16.65
2023-03-10T07:31:21.316Z,19.75
2023-03-10T07:33:49.362Z,22.20
2023-03-10T07:36:17.784Z,16.83
2023-03-10T07:38:44.877Z,17.60
2023-03-10T07:41:21.131Z,18.15
2023-03-10T07:43:51.145Z,19.40
2023-03-10T07:46:17.748Z,17.52
2023-03-10T07:48:44.415Z,21.23
2023-03-10T07:51:12.479Z,23.70
2023-03-10T07:53:39.193Z,23.63
2023-03-10T07:56:07.647Z,19.70
2023-03-10T07:58:34.654Z,23.60
2023-03-10T08:01:01.640Z,21.83
2023-03-10T08:03:28.823Z,26.52
2023-03-10T08:05:55.735Z,22.92
2023-03-10T08:08:23.178Z,23.73
2023-03-10T08:10:49.848Z,21.65
2023-03-10T08:13:16.460Z,20.20
2023-03-10T08:15:43.009Z,25.08
2023-03-10T08:18:09.768Z,23.02
2023-03-10T08:20:36.798Z,20.30
2023-03-10T08:23:04.243Z,23.52
2023-03-10T08:25:31.118Z,26.45
2023-03-10T08:27:57.714Z,21.42
2023-03-10T08:30:24.304Z,19.48
2023-03-10T08:32:51.004Z,21.45
2023-03-10T08:35:18.186Z,23.95
2023-03-10T08:37:44.844Z,22.23
2023-03-10T08:40:14.071Z,18.73
2023-03-10T08:42:40.821Z,16.55
2023-03-10T08:45:08.821Z,19.13
2023-03-10T08:47:35.960Z,21.38
2023-03-10T08:50:02.916Z,18.42
2023-03-10T08:52:29.442Z,18.45
2023-03-10T08:54:58.191Z,18.20
2023-03-10T08:57:26.504Z,15.82
2023-03-10T08:59:53.139Z,15.85
2023-03-10T09:02:22.054Z,15.38
2023-03-10T09:04:50.373Z,27.00
2023-03-10T09:07:17.694Z,13.43
2023-03-10T09:09:44.470Z,16.85
2023-03-10T09:12:11.876Z,16.30
2023-03-10T09:14:38.520Z,21.35
2023-03-10T09:17:05.807Z,19.23
2023-03-10T09:19:32.355Z,16.30
2023-03-10T09:21:59.395Z,14.90
2023-03-10T09:24:26.226Z,14.38
2023-03-10T09:26:52.780Z,13.30
2023-03-10T09:29:20.347Z,18.67
2023-03-10T09:31:49.664Z,14.32
2023-03-10T09:34:16.294Z,11.05
2023-03-10T09:36:42.904Z,10.73
2023-03-10T09:39:09.625Z,10.13
2023-03-10T09:41:42.210Z,11.43
2023-03-10T09:44:17.986Z,7.07
2023-03-10T09:47:09.579Z,8.65
2023-03-10T09:49:39.066Z,10.98
2023-03-10T09:52:26.440Z,9.82
2023-03-10T09:55:13.153Z,8.27
2023-03-10T09:57:40.270Z,12.05
2023-03-10T10:00:11.685Z,8.40
2023-03-10T10:02:41.679Z,6.03
2023-03-10T10:05:31.443Z,4.68
2023-03-10T10:08:00.541Z,3.85
2023-03-10T10:10:29.899Z,5.20
2023-03-10T10:13:01.403Z,4.90
2023-03-10T10:15:28.994Z,5.35
2023-03-10T10:18:19.656Z,6.20
2023-03-10T10:20:59.233Z,5.45
2023-03-10T10:23:43.125Z,2.80
2023-03-10T10:26:17.830Z,4.30
2023-03-10T10:28:51.042Z,3.33
2023-03-10T10:31:24.452Z,3.65
2023-03-10T10:33:58.588Z,3.65
2023-03-10T10:36:30.853Z,3.63
2023-03-10T10:38:57.887Z,4.60
2023-03-10T10:41:27.209Z,4.00
2023-03-10T10:43:56.981Z,4.68
2023-03-10T10:46:27.713Z,4.07
2023-03-10T10:49:05.125Z,3.20
2023-03-10T10:51:36.205Z,3.50
2023-03-10T10:54:06.307Z,4.63
2023-03-10T10:56:32.962Z,7.07
2023-03-10T10:59:19.609Z,6.82
2023-03-10T11:01:49.352Z,3.72
2023-03-10T11:04:17.443Z,3.35
2023-03-10T11:06:44.270Z,3.30
2023-03-10T11:09:15.142Z,3.95
2023-03-10T11:11:50.084Z,5.13
2023-03-10T11:14:16.594Z,4.15
2023-03-10T11:17:05.178Z,3.60
2023-03-10T11:19:35.859Z,5.15
2023-03-10T11:22:07.581Z,2.83
2023-03-10T11:24:40.324Z,3.15
2023-03-10T11:27:16.983Z,3.72
2023-03-10T11:30:06.880Z,3.78
2023-03-10T11:33:05.615Z,4.00
2023-03-10T11:35:38.309Z,3.58
2023-03-10T11:38:37.689Z,3.13
2023-03-10T11:41:08.352Z,3.40
2023-03-10T11:43:55.303Z,5.60
2023-03-10T11:46:29.926Z,3.65
2023-03-10T11:49:10.832Z,3.63
2023-03-10T11:51:49.949Z,7.05
2023-03-10T11:54:35.086Z,2.65
2023-03-10T11:57:12.989Z,3.15
2023-03-10T11:59:47.715Z,3.72
2023-03-10T12:02:24.776Z,2.33
2023-03-10T12:05:01.878Z,2.90
2023-03-10T12:07:41.501Z,3.13
2023-03-10T12:10:11.394Z,3.22
2023-03-10T12:12:43.196Z,4.10
2023-03-10T12:15:24.879Z,3.15
2023-03-10T12:17:53.037Z,3.10
2023-03-10T12:20:19.673Z,8.57
2023-03-10T12:23:00.367Z,3.45
2023-03-10T12:25:29.978Z,5.97
2023-03-10T12:28:24.684Z,5.38
2023-03-10T12:31:00.476Z,7.45
2023-03-10T12:33:39.771Z,5.60
2023-03-10T12:36:32.564Z,6.60
2023-03-10T12:39:18.759Z,5.13
2023-03-10T12:41:53.082Z,5.38
2023-03-10T12:44:22.836Z,7.78
2023-03-10T12:47:00.920Z,4.65
2023-03-10T12:49:46.073Z,6.32
2023-03-10T12:52:36.771Z,7.55
2023-03-10T12:55:05.524Z,6.90
2023-03-10T12:57:56.110Z,7.78
2023-03-10T13:00:31.326Z,9.25
2023-03-10T13:05:35.245Z,6.55
2023-03-10T13:08:13.483Z,8.23
2023-03-10T13:10:40.394Z,7.07
2023-03-10T13:13:11.729Z,6.68
2023-03-10T13:15:38.299Z,8.25
2023-03-10T13:18:16.598Z,7.65
2023-03-10T13:20:43.402Z,10.27
2023-03-10T13:23:27.754Z,10.25
2023-03-10T13:25:58.512Z,9.82
2023-03-10T13:28:26.530Z,9.95
2023-03-10T13:31:12.222Z,9.73
2023-03-10T13:33:50.365Z,11.82
2023-03-10T13:36:36.280Z,13.02
2023-03-10T13:39:15.920Z,14.52
2023-03-10T13:42:03.485Z,15.35
2023-03-10T13:44:40.915Z,13.65
2023-03-10T13:47:24.460Z,13.20
2023-03-10T13:49:53.110Z,12.20
2023-03-10T13:52:25.511Z,8.43
2023-03-10T13:54:52.270Z,10.68
2023-03-10T13:57:31.397Z,13.13
2023-03-10T13:59:58.574Z,8.73
2023-03-10T14:02:31.322Z,11.07
2023-03-10T14:04:58.439Z,10.65
2023-03-10T14:07:30.286Z,10.23
2023-03-10T14:10:05.943Z,13.27
2023-03-10T14:12:39.532Z,14.30
2023-03-10T14:15:09.778Z,11.43
2023-03-10T14:17:37.733Z,18.35
2023-03-10T14:20:05.468Z,13.65
2023-03-10T14:22:36.884Z,12.10
2023-03-10T14:25:13.487Z,17.35
2023-03-10T14:27:42.327Z,12.63
2023-03-10T14:32:44.839Z,16.00
2023-03-10T14:35:12.862Z,13.70
2023-03-10T14:37:39.382Z,16.73
2023-03-10T14:40:06.978Z,11.52
2023-03-10T14:42:34.005Z,16.77
2023-03-10T14:45:06.000Z,14.18
2023-03-10T14:47:32.844Z,19.70
2023-03-10T14:50:00.648Z,13.15
2023-03-10T14:52:27.548Z,11.75
2023-03-10T14:54:54.076Z,9.10
2023-03-10T14:57:21.744Z,13.02
2023-03-10T14:59:49.091Z,9.35
2023-03-10T15:02:25.694Z,9.95
2023-03-10T15:04:52.418Z,10.05
2023-03-10T15:07:19.277Z,9.63
2023-03-10T15:09:45.889Z,8.65
2023-03-10T15:12:15.066Z,7.55
2023-03-10T15:14:50.872Z,10.80
2023-03-10T15:17:17.386Z,12.98
2023-03-10T15:19:43.912Z,7.90
2023-03-10T15:22:10.466Z,5.72
2023-03-10T15:24:37.148Z,6.57
2023-03-10T15:27:04.502Z,9.18
2023-03-10T15:29:31.040Z,10.18
2023-03-10T15:31:58.227Z,5.22
2023-03-10T15:34:24.774Z,9.85
2023-03-10T15:36:51.261Z,13.90
2023-03-10T15:39:30.622Z,8.70
2023-03-10T15:41:57.457Z,8.23
2023-03-10T15:44:23.974Z,7.80
2023-03-10T15:46:54.716Z,7.30
2023-03-10T15:49:21.418Z,10.10
2023-03-10T15:51:48.115Z,7.15
2023-03-10T15:54:14.922Z,10.57
2023-03-10T15:56:41.447Z,12.07
2023-03-10T15:59:08.323Z,7.50
2023-03-10T16:01:35.142Z,9.90
2023-03-10T16:04:05.697Z,7.55
2023-03-10T16:06:33.729Z,3.75
2023-03-10T16:09:00.759Z,12.77
2023-03-10T16:11:27.506Z,7.72
2023-03-10T16:13:54.032Z,14.70
2023-03-10T16:16:23.452Z,6.85
2023-03-10T16:18:50.249Z,5.70
2023-03-10T16:21:18.173Z,5.45
2023-03-10T16:23:45.151Z,8.27
2023-03-10T16:26:11.704Z,6.97
2023-03-10T16:28:41.149Z,2.38
2023-03-10T16:31:08.471Z,10.27
2023-03-10T16:33:35.230Z,9.77
2023-03-10T16:36:03.860Z,7.97
2023-03-10T16:38:30.752Z,10.88
2023-03-10T16:40:58.004Z,7.07
2023-03-10T16:43:28.303Z,6.00
2023-03-10T16:46:30.001Z,13.60
2023-03-10T16:48:57.228Z,4.88
2023-03-10T16:51:37.753Z,4.60
2023-03-10T16:54:10.382Z,9.27
2023-03-10T16:56:41.722Z,6.88
2023-03-10T16:59:08.969Z,7.25
2023-03-10T17:01:35.521Z,9.60
2023-03-10T17:04:02.253Z,23.98
2023-03-10T17:06:31.863Z,13.25
2023-03-10T17:08:59.476Z,14.68
2023-03-10T17:11:28.313Z,17.17
2023-03-10T17:13:57.063Z,6.68
2023-03-10T17:16:28.254Z,4.78
2023-03-10T17:19:00.179Z,6.65
2023-03-10T17:21:28.904Z,6.78
2023-03-10T17:23:55.927Z,8.25
2023-03-10T17:26:22.542Z,7.55
2023-03-10T17:28:50.798Z,17.23
2023-03-10T17:31:26.335Z,14.77
2023-03-10T17:33:54.308Z,9.05
2023-03-10T17:36:21.173Z,16.42
2023-03-10T17:38:47.921Z,13.65
2023-03-10T17:41:16.039Z,7.72
2023-03-10T17:43:42.932Z,11.40
2023-03-10T17:46:13.978Z,15.85
2023-03-10T17:48:41.126Z,9.57
2023-03-10T17:51:08.377Z,12.02
2023-03-10T17:53:34.961Z,10.88
2023-03-10T17:56:05.863Z,13.05
2023-03-10T17:58:33.291Z,13.98
2023-03-10T18:01:15.390Z,11.07
2023-03-10T18:03:42.255Z,15.65
2023-03-10T18:06:17.560Z,13.50
2023-03-10T18:08:44.201Z,9.88
2023-03-10T18:11:11.191Z,5.25
2023-03-10T18:13:37.852Z,9.18
2023-03-10T18:16:05.872Z,10.52
2023-03-10T18:18:32.637Z,10.43
2023-03-10T18:20:59.254Z,12.82
2023-03-10T18:23:25.851Z,6.90
2023-03-10T18:25:52.588Z,10.88
2023-03-10T18:28:19.734Z,17.60
2023-03-10T18:30:49.275Z,13.20
2023-03-10T18:33:16.277Z,20.58
2023-03-10T18:35:45.157Z,11.70
2023-03-10T18:40:39.504Z,8.63
2023-03-10T18:43:06.047Z,9.70
2023-03-10T18:45:32.567Z,7.68
2023-03-10T18:47:59.113Z,20.02
2023-03-10T18:50:25.671Z,11.13
2023-03-10T18:52:52.204Z,14.40
2023-03-10T18:55:18.916Z,7.75
2023-03-10T18:57:45.443Z,22.10
2023-03-10T19:00:15.052Z,21.80
2023-03-10T19:02:42.419Z,8.48
2023-03-10T19:05:15.899Z,8.50
2023-03-10T19:07:42.469Z,16.50
2023-03-10T19:10:12.724Z,14.75
2023-03-10T19:12:40.141Z,13.38
2023-03-10T19:15:09.112Z,14.55
2023-03-10T19:17:37.707Z,9.07
2023-03-10T19:20:07.989Z,10.35
2023-03-10T19:22:35.352Z,9.02
2023-03-10T19:25:03.565Z,10.60
2023-03-10T19:27:30.979Z,13.27
2023-03-10T19:29:58.046Z,13.85
2023-03-10T19:32:25.268Z,13.65
2023-03-10T19:34:51.963Z,10.93
2023-03-10T19:37:18.663Z,15.50
2023-03-10T19:39:45.268Z,8.80
2023-03-10T19:42:11.812Z,14.00
2023-03-10T19:44:39.493Z,15.00
2023-03-10T19:47:06.859Z,10.10
2023-03-10T19:49:34.219Z,10.38
2023-03-10T19:52:01.605Z,14.68
2023-03-10T19:54:28.200Z,9.48
2023-03-10T19:56:54.837Z,10.30
2023-03-10T19:59:21.361Z,12.55
2023-03-10T20:01:49.378Z,8.50
2023-03-10T20:04:16.154Z,13.65
2023-03-10T20:06:42.728Z,8.75
2023-03-10T20:09:10.626Z,12.80
2023-03-10T20:11:38.831Z,11.10
2023-03-10T20:14:06.022Z,16.77
2023-03-10T20:16:33.443Z,7.35
2023-03-10T20:19:00.260Z,13.60
2023-03-10T20:21:27.585Z,7.75
2023-03-10T20:23:55.965Z,6.78
2023-03-10T20:26:22.970Z,13.90
2023-03-10T20:28:49.846Z,20.15
2023-03-10T20:31:17.935Z,11.23
2023-03-10T20:33:44.668Z,17.00
2023-03-10T20:36:13.953Z,8.23
2023-03-10T20:38:44.027Z,13.38
2023-03-10T20:41:16.583Z,10.68
2023-03-10T20:43:43.973Z,11.80
2023-03-10T20:46:11.058Z,7.72
2023-03-10T20:48:37.742Z,13.30
2023-03-10T20:51:04.451Z,11.35
2023-03-10T20:53:33.260Z,5.95
2023-03-10T20:56:00.546Z,8.18
2023-03-10T20:58:27.225Z,12.18
2023-03-10T21:00:53.880Z,6.35
2023-03-10T21:03:21.560Z,7.50
2023-03-10T21:05:48.224Z,12.00
2023-03-10T21:08:14.857Z,12.82
2023-03-10T21:10:41.732Z,8.75
2023-03-10T21:13:08.325Z,15.95
2023-03-10T21:15:35.059Z,12.77
2023-03-10T21:18:01.601Z,8.60
2023-03-10T21:20:28.171Z,12.95
2023-03-10T21:22:54.727Z,7.90
2023-03-10T21:25:24.518Z,15.95
2023-03-10T21:27:53.294Z,11.50
2023-03-10T21:30:21.376Z,17.42
2023-03-10T21:32:48.057Z,5.68
2023-03-10T21:35:14.626Z,11.65
2023-03-10T21:37:42.871Z,10.43
2023-03-10T21:40:12.004Z,7.30
2023-03-10T21:42:38.567Z,11.05
2023-03-10T21:45:05.846Z,6.80
2023-03-10T21:47:32.443Z,11.93
2023-03-10T21:49:58.949Z,8.07
2023-03-10T21:52:25.768Z,6.78
2023-03-10T21:54:52.310Z,8.13
2023-03-10T21:57:18.915Z,9.27
2023-03-10T21:59:45.608Z,10.18
2023-03-10T22:02:35.497Z,6.28
2023-03-10T22:05:02.070Z,6.65
2023-03-10T22:07:28.604Z,5.47
2023-03-10T22:09:55.125Z,10.05
2023-03-10T22:12:21.657Z,8.55
2023-03-10T22:14:50.351Z,16.63
2023-03-10T22:17:16.934Z,11.27
2023-03-10T22:19:43.754Z,9.30
2023-03-10T22:22:10.314Z,8.10
2023-03-10T22:24:36.916Z,2.42
2023-03-10T22:27:03.494Z,11.25
2023-03-10T22:29:30.037Z,4.28
2023-03-10T22:31:57.836Z,5.68
2023-03-10T22:34:24.343Z,4.72
2023-03-10T22:36:51.002Z,6.93
2023-03-10T22:39:18.092Z,8.30
2023-03-10T22:41:44.626Z,7.32
2023-03-10T22:44:11.146Z,5.07
2023-03-10T22:46:37.883Z,3.83
2023-03-10T22:49:04.682Z,7.80
2023-03-10T22:51:31.245Z,7.93
2023-03-10T22:53:57.804Z,9.20
2023-03-10T22:56:24.299Z,9.95
2023-03-10T22:58:50.954Z,11.80
2023-03-10T23:01:17.711Z,11.98
2023-03-10T23:03:44.369Z,10.88
2023-03-10T23:06:13.546Z,8.63
2023-03-10T23:08:43.421Z,4.85
2023-03-10T23:11:10.964Z,7.55
2023-03-10T23:13:37.746Z,6.70
2023-03-10T23:16:04.796Z,5.00
2023-03-10T23:18:31.443Z,10.80
2023-03-10T23:20:58.015Z,6.40
2023-03-10T23:23:24.664Z,11.65
2023-03-10T23:25:51.851Z,10.15
2023-03-10T23:28:20.010Z,5.93
2023-03-10T23:30:47.864Z,8.68
2023-03-10T23:33:17.630Z,7.43
2023-03-10T23:35:46.313Z,4.53
2023-03-10T23:38:12.927Z,5.65
2023-03-10T23:40:39.432Z,4.18
2023-03-10T23:43:07.016Z,7.03
2023-03-10T23:45:35.550Z,11.15
2023-03-10T23:48:02.431Z,12.77
2023-03-10T23:50:32.636Z,6.88
2023-03-10T23:52:59.743Z,4.93
2023-03-10T23:55:28.922Z,6.70
2023-03-10T23:57:55.585Z,10.90
